Wiarton Airport
CYVV : rendu visible

Aérodrome :











RETROUVEZ-NOUS SUR...

 
LOGIN :

S'inscrire | Disclaimer

   EN    FR    IT 

 









Légende :    VFR   VFR Marginal   IFR   IFR Intensif   IFR Très Intensif
Visi : 
Plafond : 
>= 8 km
>= 3000ft
5 à 8 km
1000 à 3000 ft
1500m à 5 km
500 à 1000 ft
800 à 1500m
200 à 500 ft
< 800m
< 200 ft
Symboles :   Orages  Brouillard  Fortes neiges  Fortes précipitations  Vent > 20 kt






- Altitude de l'aérodrome : 729 ft
- Code IATA : YVV


CYVV - Wiarton

DERNIER METAR :
  • 031810Z 05008KT 12SM SCT016 BKN045 BKN250 18/16 A3000 RMK SC3SC4CI1 CI TR SLP160 DENSITY ALT 1200FT

METARs EXPIRÉS :
  • 031700Z 05007KT 030V090 10SM -RA OVC018 16/15 A3002 RMK SC8 SLP168 DENSITY ALT 900FT
  • 031600Z 04006KT 12SM -RA OVC020 16/14 A3003 RMK SC8 SLP172 DENSITY ALT 900FT

TAF TAF CYVV
Valide du 03 à 14h jusqu'au 03 à 23h UTC


031338Z 0314/0323 05005KT P6SM BKN020
TEMPO 0314/0315 BKN025
FM031500 06008KT P6SM OVC025
TEMPO 0315/0323 4SM -SHRA BR OVC015
PROB30 0317/0322 11/2SM TSRA BR BKN008 OVC015CB RMK NXT FCST BY 032000Z
FIR CZYZ / Amérique du Nord



MET'MAP, la Météo Aéronautique d'un coup d'oeil ! - Copyright ORBIFLY Décembre 2007 - Disclaimer

ORBIFLY MET'MAP TEAM :

Programmation & Développement : Alexandra Zaïnal
Sur une idée originale de : Baudouin d'Aumeries
Assistance à la programmation : Marc-Olivier Méhu
Soutien technique & logistique : Manuel Goepfert

Contact : metmap@orbifly.com




SOURCES & CREDITS :

   NOAA       Earth
Advisory